Time;durP1;ratioP1;P1;durP2;ratioP2;P2;SDS_P1;SDS_P2;PMS_P1;PMS_P2;Temp;Humidity;BMP_temperature;BMP_pressure;BME280_temperature;BME280_humidity;BME280_pressure;Samples;Min_cycle;Max_cycle;Signal;HPM_P1;HPM_P2
2022/09/20 00:01:07;;;;;;;4.23;2.20;;;13.50;72.50;;;-142.21;98.70;112049.66;5029445;28;20433;-74
2022/09/20 00:03:35;;;;;;;2.70;2.10;;;13.60;72.80;;;-142.21;98.71;112049.66;5021371;28;20472;-75
2022/09/20 00:06:06;;;;;;;4.77;2.30;;;13.60;72.80;;;-142.21;99.23;112049.66;4977775;28;20456;-74
2022/09/20 00:08:35;;;;;;;2.50;2.17;;;13.60;72.90;;;-142.21;99.05;112049.66;5021839;28;20481;-75
2022/09/20 00:11:03;;;;;;;2.67;2.20;;;13.60;73.00;;;-142.21;100.00;112049.66;5020952;28;20948;-75
2022/09/20 00:13:31;;;;;;;5.47;2.33;;;13.60;73.60;;;-142.21;100.00;112049.66;5027356;28;20450;-75
2022/09/20 00:15:59;;;;;;;6.97;2.53;;;13.60;73.80;;;-142.21;100.00;112049.66;5015732;28;20870;-74
2022/09/20 00:18:27;;;;;;;4.03;2.50;;;13.60;73.90;;;-142.21;100.00;112049.66;5024797;28;21012;-75
2022/09/20 00:20:54;;;;;;;3.00;2.43;;;13.60;74.10;;;-142.21;100.00;112049.66;5025325;28;20524;-76
2022/09/20 00:23:22;;;;;;;3.40;2.17;;;13.70;73.90;;;-142.21;100.00;112049.66;5030505;28;20482;-75
2022/09/20 00:25:56;;;;;;;4.00;2.73;;;13.60;74.20;;;-142.21;100.00;112049.66;5020309;28;20446;-75
2022/09/20 00:28:24;;;;;;;5.17;2.33;;;13.60;74.20;;;-142.21;100.00;112049.66;5008916;28;20849;-75
2022/09/20 00:30:52;;;;;;;4.10;2.20;;;13.60;74.20;;;-142.21;100.00;112049.66;5031738;28;20449;-75
2022/09/20 00:33:20;;;;;;;4.87;2.20;;;13.50;74.40;;;-142.21;100.00;112049.66;5032969;28;20464;-75
2022/09/20 00:35:46;;;;;;;3.80;2.20;;;13.30;74.60;;;-142.21;100.00;112049.66;5020870;28;20548;-75
2022/09/20 00:38:14;;;;;;;7.57;2.20;;;13.30;75.50;;;-142.21;100.00;112049.66;5027141;28;20473;-76
2022/09/20 00:40:44;;;;;;;2.70;2.30;;;13.40;74.70;;;-142.21;100.00;112049.66;5027869;28;20532;-75
2022/09/20 00:43:15;;;;;;;3.00;2.33;;;13.50;74.50;;;-142.21;100.00;112049.66;5012252;28;21031;-75
2022/09/20 00:45:46;;;;;;;2.23;1.90;;;13.50;74.50;;;-142.21;100.00;112049.66;5033018;28;20499;-75
2022/09/20 00:48:21;;;;;;;3.37;2.20;;;13.60;74.50;;;-142.21;100.00;112049.66;5022936;28;20461;-76
2022/09/20 00:50:55;;;;;;;4.67;2.23;;;13.60;74.60;;;-142.21;100.00;112049.66;5016124;28;20442;-76
2022/09/20 00:53:32;;;;;;;4.33;2.47;;;13.60;74.40;;;-142.21;100.00;112049.66;5021263;28;20438;-74
2022/09/20 00:56:06;;;;;;;4.77;2.67;;;13.60;74.20;;;-142.21;100.00;112049.66;5019488;28;20438;-75
2022/09/20 00:58:41;;;;;;;4.33;2.37;;;13.60;75.20;;;-142.21;100.00;112049.66;5019933;28;20528;-75
2022/09/20 01:01:09;;;;;;;5.43;2.60;;;13.60;74.70;;;-142.21;100.00;112049.66;5032730;28;20439;-75
2022/09/20 01:03:40;;;;;;;2.50;2.30;;;13.60;74.60;;;-142.21;100.00;112049.66;5026629;28;20485;-74
2022/09/20 01:06:12;;;;;;;4.60;2.40;;;13.70;74.70;;;-142.21;100.00;112049.66;5015691;28;20446;-75
2022/09/20 01:08:45;;;;;;;3.37;2.87;;;13.60;74.70;;;-142.21;100.00;112049.66;5028599;28;20479;-75
2022/09/20 01:11:14;;;;;;;3.53;2.47;;;13.60;74.80;;;-142.21;100.00;112049.66;5025188;28;20446;-75
2022/09/20 01:13:41;;;;;;;4.50;2.43;;;13.70;75.20;;;-142.21;100.00;112049.66;5014597;28;20450;-75
2022/09/20 01:16:10;;;;;;;3.00;2.50;;;13.70;75.50;;;-142.21;100.00;112049.66;5029113;28;20457;-76
2022/09/20 01:18:39;;;;;;;5.17;2.70;;;13.70;75.40;;;-142.21;100.00;112049.66;5026799;28;21029;-74
2022/09/20 01:21:09;;;;;;;3.10;2.23;;;13.80;75.50;;;-142.21;100.00;112049.66;5022657;28;20933;-75
2022/09/20 01:23:55;;;;;;;4.20;2.30;;;13.80;75.10;;;-142.21;100.00;112049.66;5025512;28;20469;-75
2022/09/20 01:26:57;;;;;;;8.53;2.23;;;13.70;75.00;;;-142.21;100.00;112049.66;5016011;28;20454;-75
2022/09/20 01:29:52;;;;;;;6.77;2.60;;;13.70;75.10;;;-142.21;100.00;112049.66;5013630;28;20442;-75
2022/09/20 01:32:26;;;;;;;3.80;2.23;;;13.70;75.20;;;-142.21;100.00;112049.66;5023610;28;20473;-75
2022/09/20 01:35:00;;;;;;;5.17;2.43;;;13.70;75.10;;;-142.21;100.00;112049.66;5026782;28;20449;-75
2022/09/20 01:37:34;;;;;;;2.50;2.10;;;13.70;75.00;;;-142.21;100.00;112049.66;5016693;28;20539;-75
2022/09/20 01:40:17;;;;;;;3.07;2.20;;;13.70;75.10;;;-142.21;100.00;112049.66;5033415;28;20499;-75
2022/09/20 01:42:56;;;;;;;3.43;2.27;;;13.70;75.30;;;-142.21;100.00;112049.66;5029643;28;20470;-75
2022/09/20 01:45:31;;;;;;;4.80;2.53;;;13.70;75.60;;;-142.21;100.00;112049.66;4993999;28;20953;-74
2022/09/20 01:48:13;;;;;;;4.50;2.33;;;13.70;75.80;;;-142.21;100.00;112049.66;5019969;28;20441;-75
2022/09/20 01:51:22;;;;;;;3.83;2.13;;;13.70;75.80;;;-142.21;100.00;112049.66;4991708;28;20449;-74
2022/09/20 01:54:43;;;;;;;3.67;2.80;;;13.80;75.80;;;-142.21;100.00;112049.66;5025072;28;20452;-74
2022/09/20 01:57:57;;;;;;;5.13;2.37;;;13.80;75.70;;;-142.21;100.00;112049.66;5010056;28;20786;-75
2022/09/20 02:00:29;;;;;;;4.07;2.50;;;13.80;75.80;;;-142.21;100.00;112049.66;5023910;28;20446;-74
2022/09/20 02:03:57;;;;;;;2.53;2.33;;;13.70;75.70;;;-142.21;100.00;112049.66;5028299;28;20889;-74
2022/09/20 02:06:47;;;;;;;2.33;2.10;;;13.70;76.10;;;-142.21;100.00;112049.66;5014815;28;20443;-74
2022/09/20 02:09:52;;;;;;;3.57;2.43;;;13.80;76.20;;;-142.21;100.00;112049.66;5031383;28;20531;-75
2022/09/20 02:12:49;;;;;;;6.30;2.30;;;13.80;76.30;;;-142.21;100.00;112049.66;5032932;28;20436;-74
2022/09/20 02:15:41;;;;;;;3.53;2.73;;;13.70;76.00;;;-142.21;100.00;112049.66;4953139;28;20832;-75
2022/09/20 02:18:33;;;;;;;4.40;2.80;;;13.80;76.40;;;-142.21;100.00;112049.66;5023099;28;20449;-75
2022/09/20 02:21:14;;;;;;;2.63;2.00;;;13.80;76.40;;;-142.21;100.00;112049.66;5014674;28;20445;-75
2022/09/20 02:23:55;;;;;;;3.53;2.60;;;13.90;76.40;;;-142.21;100.00;112049.66;5009373;28;20495;-74
2022/09/20 02:26:39;;;;;;;4.87;2.70;;;13.90;76.40;;;-142.21;100.00;112049.66;4990811;28;20453;-74
2022/09/20 02:29:25;;;;;;;3.30;2.10;;;13.90;76.10;;;-142.21;100.00;112049.66;5013636;28;20438;-75
2022/09/20 02:32:22;;;;;;;8.53;2.37;;;13.90;76.30;;;-142.21;100.00;112049.66;4964350;28;20522;-75
2022/09/20 02:35:25;;;;;;;3.47;2.57;;;13.90;76.10;;;-142.21;100.00;112049.66;5018715;28;20464;-74
2022/09/20 02:38:08;;;;;;;4.00;2.40;;;13.90;76.30;;;-142.21;100.00;112049.66;5028615;28;20551;-75
2022/09/20 02:41:46;;;;;;;2.60;2.20;;;13.90;76.10;;;-142.21;100.00;112049.66;5031358;28;20452;-74
2022/09/20 02:44:29;;;;;;;5.47;2.37;;;14.00;76.90;;;-142.21;100.00;112049.66;5009134;28;20482;-75
2022/09/20 02:47:12;;;;;;;5.73;2.50;;;14.00;76.30;;;-142.21;100.00;112049.66;5014192;28;20446;-74
2022/09/20 02:49:58;;;;;;;5.03;2.10;;;14.10;75.80;;;-142.21;100.00;112049.66;5025597;28;20461;-74
2022/09/20 02:52:35;;;;;;;6.13;2.50;;;14.10;75.50;;;-142.21;100.00;112049.66;5018878;28;20936;-75
2022/09/20 02:55:13;;;;;;;5.50;2.17;;;14.10;75.80;;;-142.21;100.00;112049.66;5008214;28;20445;-75
2022/09/20 02:58:00;;;;;;;3.97;2.37;;;14.10;75.70;;;-142.21;100.00;112049.66;4972426;28;20452;-75
2022/09/20 03:00:37;;;;;;;5.47;2.53;;;14.10;76.00;;;-142.21;100.00;112049.66;5022983;28;20442;-74
2022/09/20 03:03:20;;;;;;;6.57;2.43;;;14.20;76.30;;;-142.21;100.00;112049.66;5052491;28;20476;-74
2022/09/20 03:06:01;;;;;;;5.53;2.23;;;14.20;76.20;;;-142.21;100.00;112049.66;5056120;28;20463;-74
2022/09/20 03:08:41;;;;;;;3.80;2.10;;;14.20;76.00;;;-142.21;100.00;112049.66;5055408;28;20488;-74
2022/09/20 03:11:22;;;;;;;2.57;2.03;;;14.20;76.10;;;-142.21;100.00;112049.66;5037359;28;20441;-75
2022/09/20 03:14:12;;;;;;;6.60;2.30;;;14.20;77.20;;;-142.21;100.00;112049.66;5036191;28;20774;-74
2022/09/20 03:17:02;;;;;;;4.37;2.33;;;14.20;77.40;;;-142.21;100.00;112049.66;5035373;28;20441;-75
2022/09/20 03:19:48;;;;;;;4.57;2.23;;;14.20;76.60;;;-142.21;100.00;112049.66;5034655;28;20476;-75
2022/09/20 03:22:28;;;;;;;5.90;2.23;;;14.20;76.90;;;-142.21;100.00;112049.66;5020660;28;20452;-75
2022/09/20 03:25:27;;;;;;;4.33;2.10;;;14.30;76.20;;;-142.21;100.00;112049.66;5022775;28;20916;-74
2022/09/20 03:28:10;;;;;;;5.77;2.10;;;14.30;76.60;;;-142.21;100.00;112049.66;5026159;28;20793;-75
2022/09/20 03:30:55;;;;;;;6.73;2.40;;;14.30;76.20;;;-142.21;100.00;112049.66;5025927;28;20486;-75
2022/09/20 03:33:42;;;;;;;4.97;2.60;;;14.30;76.00;;;-142.21;100.00;112049.66;5024215;28;20437;-74
2022/09/20 03:36:36;;;;;;;3.27;1.93;;;14.30;75.60;;;-142.21;100.00;112049.66;5032426;28;20797;-75
2022/09/20 03:39:35;;;;;;;3.33;2.03;;;14.30;75.50;;;-142.21;100.00;112049.66;5016405;28;20482;-74
2022/09/20 03:42:16;;;;;;;5.37;2.30;;;14.30;74.90;;;-142.21;100.00;112049.66;5016983;28;20553;-75
2022/09/20 03:45:27;;;;;;;2.83;2.20;;;14.30;75.10;;;-142.21;100.00;112049.66;5024049;28;20961;-74
2022/09/20 03:48:21;;;;;;;5.70;2.40;;;14.30;74.70;;;-142.21;100.00;112049.66;5030012;28;20924;-74
2022/09/20 03:51:04;;;;;;;4.90;2.60;;;14.20;74.40;;;-142.21;100.00;112049.66;5014363;28;20443;-74
2022/09/20 03:54:17;;;;;;;5.87;3.13;;;14.20;75.00;;;-142.21;100.00;112049.66;5023755;28;20429;-75
2022/09/20 03:57:22;;;;;;;6.73;2.03;;;14.20;75.00;;;-142.21;100.00;112049.66;5034430;28;20453;-74
2022/09/20 04:00:22;;;;;;;4.67;2.10;;;14.10;75.70;;;-142.21;100.00;112049.66;4999900;28;20537;-75
2022/09/20 04:03:25;;;;;;;3.47;1.90;;;14.10;76.00;;;-142.21;100.00;112049.66;5015287;28;20549;-75
2022/09/20 04:06:12;;;;;;;2.97;2.20;;;14.10;76.50;;;-142.21;100.00;112049.66;5019667;28;20486;-74
2022/09/20 04:09:26;;;;;;;4.63;2.20;;;14.00;76.10;;;-142.21;100.00;112049.66;5033198;28;20483;-75
2022/09/20 04:12:05;;;;;;;4.23;2.27;;;14.00;76.10;;;-142.21;100.00;112049.66;5029848;28;20445;-76
2022/09/20 04:14:43;;;;;;;3.77;2.10;;;14.00;76.10;;;-142.21;100.00;112049.66;5031128;28;20435;-75
2022/09/20 04:17:31;;;;;;;3.50;2.53;;;14.00;76.10;;;-142.21;100.00;112049.66;5031810;28;20437;-75
2022/09/20 04:20:06;;;;;;;3.23;2.20;;;14.00;75.90;;;-142.21;100.00;112049.66;5034114;28;20433;-75
2022/09/20 04:22:35;;;;;;;2.83;2.17;;;13.90;75.80;;;-142.21;100.00;112049.66;5014828;28;20446;-75
2022/09/20 04:25:15;;;;;;;4.77;2.00;;;13.70;76.40;;;-142.21;100.00;112049.66;5022501;28;20570;-73
2022/09/20 04:27:50;;;;;;;4.50;2.23;;;13.60;76.40;;;-142.21;100.00;112049.66;5029792;28;20469;-73
2022/09/20 04:30:21;;;;;;;3.80;2.07;;;13.70;76.50;;;-142.21;100.00;112049.66;5035072;28;20788;-73
2022/09/20 04:32:59;;;;;;;4.23;2.23;;;13.70;76.40;;;-142.21;100.00;112049.66;5032832;28;20438;-75
2022/09/20 04:38:29;;;;;;;3.83;2.20;;;13.40;76.60;;;-142.21;100.00;112049.66;5032446;28;20479;-73
2022/09/20 04:41:21;;;;;;;2.87;2.10;;;13.30;77.10;;;-142.21;100.00;112049.66;5026297;28;20460;-76
2022/09/20 04:44:28;;;;;;;4.23;2.50;;;13.20;77.30;;;-142.21;100.00;112049.66;5027195;28;20830;-76
2022/09/20 04:47:48;;;;;;;2.63;2.20;;;13.20;77.50;;;-142.21;100.00;112049.66;5016132;28;20979;-75
2022/09/20 04:51:02;;;;;;;4.13;2.07;;;13.20;77.20;;;-142.21;100.00;112049.66;4997383;28;20469;-75
2022/09/20 04:54:05;;;;;;;5.10;2.33;;;13.20;77.10;;;-142.21;100.00;112049.66;5014151;28;20513;-75
2022/09/20 04:56:58;;;;;;;2.53;2.30;;;13.10;77.50;;;-142.21;100.00;112049.66;5025236;28;20928;-75
2022/09/20 04:59:54;;;;;;;2.80;2.07;;;13.20;77.30;;;-142.21;100.00;112049.66;5031053;28;20451;-75
2022/09/20 05:03:10;;;;;;;3.67;2.40;;;13.20;77.10;;;-142.21;100.00;112049.66;5027841;28;20564;-75
2022/09/20 05:06:13;;;;;;;6.57;2.67;;;13.20;76.90;;;-142.21;100.00;112049.66;5008062;28;20575;-75
2022/09/20 05:09:17;;;;;;;4.23;2.40;;;13.10;77.00;;;-142.21;100.00;112049.66;5028652;28;20503;-76
2022/09/20 05:12:28;;;;;;;2.97;2.00;;;13.20;76.80;;;-142.21;100.00;112049.66;5033555;28;21067;-75
2022/09/20 05:15:24;;;;;;;5.23;2.37;;;13.30;76.60;;;-142.21;100.00;112049.66;5023077;28;20542;-73
2022/09/20 05:18:33;;;;;;;3.97;2.20;;;13.30;75.90;;;-142.21;100.00;112049.66;5014297;28;20438;-73
2022/09/20 05:21:29;;;;;;;3.50;2.23;;;13.40;76.00;;;-142.21;100.00;112049.66;5031439;28;20444;-73
2022/09/20 05:24:10;;;;;;;4.50;2.33;;;13.40;75.70;;;-142.21;100.00;112049.66;5017467;28;20983;-74
2022/09/20 05:26:55;;;;;;;2.87;2.00;;;13.40;75.50;;;-142.21;100.00;112049.66;5033058;28;20536;-74
2022/09/20 05:29:33;;;;;;;4.57;2.30;;;13.40;75.90;;;-142.21;100.00;112049.66;5018337;28;20437;-74
2022/09/20 05:32:12;;;;;;;5.27;2.93;;;13.40;76.40;;;-142.21;100.00;112049.66;5024801;28;20495;-74
2022/09/20 05:34:51;;;;;;;4.40;2.27;;;13.40;75.50;;;-142.21;100.00;112049.66;5019750;28;20512;-74
2022/09/20 05:37:33;;;;;;;3.07;2.03;;;13.30;75.80;;;-142.21;100.00;112049.66;5031579;28;20508;-74
2022/09/20 05:40:13;;;;;;;5.97;2.40;;;13.30;75.90;;;-142.21;100.00;112049.66;4999908;28;20476;-74
2022/09/20 05:42:53;;;;;;;3.27;2.30;;;13.30;75.90;;;-142.21;100.00;112049.66;5025546;28;20520;-73
2022/09/20 05:45:48;;;;;;;5.23;2.60;;;13.40;76.00;;;-142.21;100.00;112049.66;5030343;28;20472;-75
2022/09/20 05:48:26;;;;;;;3.27;2.00;;;13.40;76.00;;;-142.21;100.00;112049.66;5053648;28;20920;-74
2022/09/20 05:51:00;;;;;;;3.93;2.00;;;13.60;75.60;;;-142.21;100.00;112049.66;5037240;28;20476;-75
2022/09/20 05:54:07;;;;;;;4.80;2.33;;;13.60;75.40;;;-142.21;100.00;112049.66;5024534;28;20438;-74
2022/09/20 05:56:48;;;;;;;2.77;2.17;;;13.70;75.20;;;-142.21;100.00;112049.66;5013282;28;20478;-75
2022/09/20 05:59:37;;;;;;;3.43;2.03;;;13.80;75.10;;;-142.21;100.00;112049.66;5054411;28;20442;-74
2022/09/20 06:02:33;;;;;;;6.90;2.43;;;13.90;75.30;;;-142.21;100.00;112049.66;5043861;28;20437;-75
2022/09/20 06:05:11;;;;;;;4.67;2.50;;;13.90;75.00;;;-142.21;100.00;112049.66;5013245;28;20594;-74
2022/09/20 06:08:25;;;;;;;7.00;2.30;;;14.00;74.90;;;-142.21;100.00;112049.66;5029680;28;20485;-74
2022/09/20 06:11:18;;;;;;;5.03;2.10;;;14.10;75.20;;;-142.21;100.00;112049.66;5025635;28;20546;-74
2022/09/20 06:14:08;;;;;;;4.07;2.23;;;14.10;74.70;;;-142.21;100.00;112049.66;5021219;28;20491;-75
2022/09/20 06:16:49;;;;;;;4.40;2.53;;;14.20;74.80;;;-142.21;100.00;112049.66;5028125;28;20481;-77
2022/09/20 06:19:33;;;;;;;4.00;2.70;;;14.20;74.30;;;-142.21;100.00;112049.66;5032949;28;20454;-75
2022/09/20 06:22:12;;;;;;;3.77;1.97;;;14.30;74.50;;;-142.21;98.01;112049.66;5034227;28;20445;-74
2022/09/20 06:24:49;;;;;;;6.63;2.20;;;14.30;73.40;;;-142.21;97.95;112049.66;5032654;28;20583;-75
2022/09/20 06:27:23;;;;;;;2.20;1.80;;;14.40;73.10;;;-142.21;98.09;112049.66;5032595;28;21004;-75
2022/09/20 06:29:58;;;;;;;7.57;2.40;;;14.40;73.20;;;-142.21;98.08;112049.66;5024575;28;20447;-75
2022/09/20 06:32:26;;;;;;;2.80;2.13;;;14.40;74.20;;;-142.21;98.65;112049.66;5020729;28;20509;-75
2022/09/20 06:34:54;;;;;;;4.40;2.17;;;14.50;73.60;;;-142.21;98.28;112049.66;5032184;28;21508;-75
2022/09/20 06:43:25;;;;;;;3.07;2.40;;;14.40;73.40;;;-142.21;96.21;112049.66;5032328;28;20944;-75
2022/09/20 06:45:52;;;;;;;4.80;2.60;;;14.40;73.00;;;-142.21;95.88;112049.66;5031506;28;20484;-75
2022/09/20 06:48:21;;;;;;;4.50;2.43;;;14.30;72.50;;;-142.21;96.69;112049.66;5032237;28;21097;-75
2022/09/20 06:50:48;;;;;;;8.80;2.60;;;14.20;73.50;;;-142.21;96.76;112049.66;5031787;28;20476;-74
2022/09/20 06:53:19;;;;;;;7.90;2.50;;;14.20;74.30;;;-142.21;97.56;112049.66;5032520;28;20782;-74
2022/09/20 06:55:47;;;;;;;6.00;1.97;;;14.30;74.20;;;-142.21;97.39;112049.66;5031808;28;20426;-75
2022/09/20 06:58:14;;;;;;;4.00;2.07;;;14.50;73.90;;;-142.21;96.81;112049.66;5032352;28;20447;-75
2022/09/20 07:00:44;;;;;;;4.70;2.23;;;14.60;73.20;;;-142.21;96.64;112049.66;5031485;28;20453;-74
2022/09/20 07:03:12;;;;;;;3.40;2.00;;;14.60;73.20;;;-142.21;96.96;112049.66;5033019;28;20531;-75
2022/09/20 07:05:42;;;;;;;5.60;1.93;;;14.70;73.10;;;-142.21;96.23;112049.66;5031888;28;20484;-75
2022/09/20 07:08:09;;;;;;;6.77;2.17;;;14.80;73.00;;;-142.21;95.72;112049.66;5031919;28;20579;-75
2022/09/20 07:10:37;;;;;;;3.40;2.20;;;14.90;72.40;;;-142.21;96.02;112049.66;5032028;28;20536;-75
2022/09/20 07:13:05;;;;;;;4.50;2.40;;;14.90;72.40;;;-142.21;96.03;112049.66;5033673;28;20449;-75
2022/09/20 07:15:36;;;;;;;7.00;2.90;;;15.00;72.60;;;-142.21;96.03;112049.66;5032421;28;20848;-74
2022/09/20 07:18:06;;;;;;;4.40;2.57;;;15.00;72.60;;;-142.21;95.17;112049.66;5033335;28;20464;-74
2022/09/20 07:20:34;;;;;;;4.77;2.47;;;15.00;72.30;;;-142.21;95.24;112049.66;5034368;28;20445;-74
2022/09/20 07:23:02;;;;;;;6.27;2.30;;;15.10;72.50;;;-142.21;95.13;112049.66;5033588;28;20548;-74
2022/09/20 07:25:31;;;;;;;5.53;2.47;;;15.10;72.00;;;-142.21;94.86;112049.66;5032080;28;20520;-74
2022/09/20 07:27:58;;;;;;;4.30;2.37;;;15.20;72.00;;;-142.21;94.75;112049.66;5032549;28;20534;-74
2022/09/20 07:30:26;;;;;;;5.67;2.47;;;15.30;71.90;;;-142.21;94.59;112049.66;5031962;28;20481;-74
2022/09/20 07:32:53;;;;;;;5.87;2.50;;;15.30;71.80;;;-142.21;94.80;112049.66;5031669;28;20499;-74
2022/09/20 07:35:21;;;;;;;6.10;2.33;;;15.40;71.80;;;-142.21;92.78;112049.66;5033866;28;20442;-74
2022/09/20 07:37:48;;;;;;;4.00;2.10;;;15.40;70.50;;;-142.21;92.28;112049.66;5031727;28;20500;-74
2022/09/20 07:40:19;;;;;;;3.53;2.00;;;15.50;70.50;;;-142.21;92.64;112049.66;5032276;28;20548;-74
2022/09/20 07:42:47;;;;;;;5.87;2.10;;;15.50;70.50;;;-142.21;92.53;112049.66;5033190;28;20512;-74
2022/09/20 07:45:14;;;;;;;4.03;2.10;;;15.60;70.50;;;-142.21;91.73;112049.66;5035259;28;20492;-74
2022/09/20 07:47:43;;;;;;;2.90;2.20;;;15.70;70.20;;;-142.21;89.56;112049.66;5034903;28;20503;-75
2022/09/20 07:50:11;;;;;;;3.43;2.30;;;15.90;69.50;;;-142.21;86.50;112049.66;5037198;28;20488;-74
2022/09/20 07:52:38;;;;;;;3.43;2.47;;;16.00;67.90;;;-142.21;87.99;112049.66;5002599;28;20475;-75
2022/09/20 07:55:06;;;;;;;4.90;2.17;;;16.00;68.60;;;-142.21;87.58;112049.66;5035580;28;20445;-74
2022/09/20 07:57:37;;;;;;;4.60;2.20;;;16.10;68.30;;;-142.21;85.10;112049.66;5035387;28;20484;-74
2022/09/20 08:00:09;;;;;;;4.17;2.23;;;16.10;66.60;;;-142.21;84.73;112049.66;5035203;28;20449;-75
2022/09/20 08:02:36;;;;;;;5.73;2.40;;;16.10;66.40;;;-142.21;86.13;112049.66;5035202;28;20426;-74
2022/09/20 08:05:05;;;;;;;4.87;2.23;;;16.10;66.70;;;-142.21;86.49;112049.66;5035079;28;20489;-74
2022/09/20 08:07:32;;;;;;;8.43;2.50;;;16.20;67.60;;;-142.21;84.40;112049.66;5034728;28;20964;-74
2022/09/20 08:10:00;;;;;;;4.57;2.17;;;16.40;66.20;;;-142.21;85.60;112049.66;5034481;28;20897;-74
2022/09/20 08:12:28;;;;;;;5.40;2.20;;;16.30;66.70;;;-142.21;83.85;112049.66;5035424;28;20445;-75
2022/09/20 08:14:56;;;;;;;4.77;1.80;;;16.20;66.10;;;-142.21;84.90;112049.66;5034577;28;20808;-75
2022/09/20 08:17:24;;;;;;;4.40;2.27;;;16.30;66.40;;;-142.21;83.15;112049.66;5034954;28;20445;-75
2022/09/20 08:19:52;;;;;;;4.27;2.30;;;16.50;65.40;;;-142.21;81.88;112049.66;5034186;28;20446;-75
2022/09/20 08:22:19;;;;;;;5.37;2.10;;;16.50;64.70;;;-142.21;81.39;112049.66;5035125;28;20476;-74
2022/09/20 08:24:47;;;;;;;6.27;2.13;;;16.40;64.50;;;-142.21;80.22;112049.66;5034199;28;20988;-75
2022/09/20 08:27:14;;;;;;;3.60;1.90;;;16.40;64.90;;;-142.21;83.55;112049.66;5034944;28;20515;-75
2022/09/20 08:29:42;;;;;;;4.53;1.93;;;16.50;65.70;;;-142.21;82.99;112049.66;5034538;28;20444;-75
2022/09/20 08:32:13;;;;;;;6.17;2.27;;;16.70;65.20;;;-142.21;80.16;112049.66;5034545;28;20492;-75
2022/09/20 08:34:42;;;;;;;3.30;1.70;;;16.90;63.80;;;-142.21;80.43;112049.66;5037866;28;20755;-75
2022/09/20 08:37:09;;;;;;;5.00;1.70;;;17.00;63.80;;;-142.21;78.50;112049.66;5035147;28;20453;-73
2022/09/20 08:39:36;;;;;;;5.00;2.17;;;17.20;62.90;;;-142.21;77.91;112049.66;5034912;28;20530;-73
2022/09/20 08:42:18;;;;;;;4.87;2.33;;;17.20;62.00;;;-142.21;77.12;112049.66;5034277;28;20496;-74
2022/09/20 08:44:55;;;;;;;5.03;1.90;;;17.30;62.00;;;-142.21;77.31;112049.66;5033987;28;20477;-74
2022/09/20 08:47:29;;;;;;;3.13;1.87;;;17.40;61.40;;;-142.21;75.39;112049.66;5034469;28;20441;-74
2022/09/20 08:50:00;;;;;;;3.73;1.57;;;17.40;60.70;;;-142.21;77.04;112049.66;5033749;28;20894;-74
2022/09/20 08:52:31;;;;;;;4.80;1.90;;;17.50;61.30;;;-142.21;77.45;112049.66;5034067;28;20903;-74
2022/09/20 08:54:58;;;;;;;4.80;1.90;;;17.70;61.30;;;-142.21;75.51;112049.66;5033536;28;20966;-74
2022/09/20 08:57:32;;;;;;;4.83;1.90;;;17.80;60.50;;;-142.21;78.53;112049.66;5035008;28;20449;-75
2022/09/20 09:00:01;;;;;;;2.50;1.70;;;17.90;61.70;;;-142.21;78.12;112049.66;5035262;28;20429;-75
2022/09/20 09:02:33;;;;;;;2.97;1.70;;;18.00;61.60;;;-142.21;77.12;112049.66;5034106;28;20449;-75
2022/09/20 09:05:01;;;;;;;4.07;1.53;;;18.20;61.10;;;-142.21;76.75;112049.66;5035798;28;20514;-76
2022/09/20 09:07:32;;;;;;;3.20;1.50;;;18.40;61.00;;;-142.21;76.05;112049.66;5034752;28;20519;-75
2022/09/20 09:10:00;;;;;;;4.93;1.80;;;18.60;60.70;;;-142.21;76.43;112049.66;5036830;28;20437;-75
2022/09/20 09:12:31;;;;;;;4.90;1.60;;;18.80;60.70;;;-142.21;74.34;112049.66;5034348;28;20865;-75
2022/09/20 09:15:04;;;;;;;3.37;1.40;;;19.00;60.00;;;-142.21;73.30;112049.66;5033306;28;20971;-75
2022/09/20 09:17:34;;;;;;;4.60;1.30;;;19.10;60.20;;;-142.21;71.90;112049.66;4982801;28;20449;-75
2022/09/20 09:20:21;;;;;;;5.37;1.50;;;19.30;59.10;;;-142.21;68.17;112049.66;5036181;28;20214;-74
2022/09/20 09:22:59;;;;;;;3.57;1.40;;;19.40;57.60;;;-142.21;67.29;112049.66;5036655;28;20437;-75
2022/09/20 09:25:31;;;;;;;5.87;1.70;;;19.60;57.80;;;-142.21;65.89;112049.66;5034512;28;20206;-75
2022/09/20 09:28:02;;;;;;;3.50;1.60;;;19.80;57.30;;;-142.21;62.58;112049.66;5033437;28;20191;-75
2022/09/20 09:30:35;;;;;;;4.97;1.90;;;20.00;56.50;;;-142.21;64.66;112049.66;5033737;28;20198;-75
2022/09/20 09:33:25;;;;;;;4.87;1.90;;;20.10;56.60;;;-142.21;62.95;112049.66;5033399;28;20234;-75
2022/09/20 09:35:56;;;;;;;2.07;1.40;;;20.30;55.60;;;-142.21;63.94;112049.66;5033144;28;20194;-75
2022/09/20 09:38:27;;;;;;;6.40;1.90;;;20.50;56.40;;;-142.21;62.29;112049.66;5033140;28;20230;-75
2022/09/20 09:40:58;;;;;;;5.43;2.00;;;20.70;55.90;;;-142.21;58.95;112049.66;5032844;28;20194;-75
2022/09/20 09:43:28;;;;;;;4.87;1.77;;;20.90;55.20;;;-142.21;59.39;112049.66;5033764;28;20276;-75
2022/09/20 09:46:16;;;;;;;3.70;1.40;;;21.00;54.70;;;-142.21;60.88;112049.66;5032487;28;20210;-75
2022/09/20 09:48:48;;;;;;;2.10;1.17;;;21.10;54.90;;;-142.21;56.04;112049.66;5033682;28;20201;-75
2022/09/20 09:51:18;;;;;;;4.20;1.70;;;21.30;53.80;;;-142.21;54.88;112049.66;5033618;28;20302;-75
2022/09/20 09:53:49;;;;;;;7.30;1.67;;;21.40;53.20;;;-142.21;56.20;112049.66;5032795;28;20191;-75
2022/09/20 09:56:37;;;;;;;6.93;1.73;;;21.60;53.60;;;-142.21;57.20;112049.66;5033215;28;20191;-75
2022/09/20 09:59:39;;;;;;;7.30;1.67;;;21.70;53.50;;;-142.21;52.62;112049.66;5032274;28;20261;-75
2022/09/20 10:02:29;;;;;;;3.67;1.60;;;21.80;52.00;;;-142.21;51.31;112049.66;5032427;28;20926;-76
2022/09/20 10:05:06;;;;;;;5.37;1.77;;;22.00;51.20;;;-142.21;51.13;112049.66;5031766;28;20199;-76
2022/09/20 10:07:44;;;;;;;6.13;1.57;;;22.10;51.50;;;-142.21;48.71;112049.66;5032391;28;20330;-75
2022/09/20 10:10:31;;;;;;;5.87;1.83;;;22.20;50.30;;;-142.21;49.63;112049.66;5032872;28;20567;-75
2022/09/20 10:13:16;;;;;;;2.63;1.70;;;22.20;50.40;;;-142.21;49.00;112049.66;5032483;28;20277;-75
2022/09/20 10:15:54;;;;;;;3.07;1.37;;;22.10;50.30;;;-142.21;49.82;112049.66;5032713;28;20190;-75
2022/09/20 10:18:41;;;;;;;7.40;1.77;;;22.10;50.40;;;-142.21;48.97;112049.66;5032937;28;20276;-73
2022/09/20 10:21:43;;;;;;;2.00;1.17;;;22.00;50.30;;;-142.21;49.97;112049.66;5031908;28;20234;-74
2022/09/20 10:24:29;;;;;;;3.67;1.47;;;21.90;50.10;;;-142.21;47.17;112049.66;5031938;28;20300;-75
2022/09/20 10:27:22;;;;;;;3.50;1.70;;;21.50;48.90;;;-142.21;52.65;112049.66;5032037;28;20666;-76
2022/09/20 10:30:03;;;;;;;4.40;1.70;;;21.30;50.60;;;-142.21;51.59;112049.66;5032079;28;20191;-75
2022/09/20 10:33:04;;;;;;;4.37;1.60;;;21.30;50.60;;;-142.21;56.07;112049.66;5032480;28;20245;-75
2022/09/20 10:35:54;;;;;;;3.50;1.37;;;21.30;51.60;;;-142.21;56.01;112049.66;5032767;28;20187;-75
2022/09/20 10:38:32;;;;;;;1.87;1.23;;;21.20;52.00;;;-142.21;58.16;112049.66;5032269;28;20702;-75
2022/09/20 10:44:15;;;;;;;3.03;1.30;;;21.40;52.10;;;-142.21;54.61;112049.66;5031894;28;20260;-75
2022/09/20 10:46:55;;;;;;;5.33;1.90;;;21.40;51.60;;;-142.21;52.84;112049.66;5032334;28;20260;-75
2022/09/20 10:49:34;;;;;;;3.83;1.70;;;21.50;51.40;;;-142.21;52.86;112049.66;5032453;28;20700;-75
2022/09/20 10:52:27;;;;;;;2.67;1.30;;;21.70;51.40;;;-142.21;50.09;112049.66;4980749;28;20206;-75
2022/09/20 10:55:35;;;;;;;3.73;1.50;;;21.80;50.20;;;-142.21;49.94;112049.66;5031810;28;20623;-75
2022/09/20 10:58:42;;;;;;;3.57;1.37;;;22.00;50.60;;;-142.21;50.17;112049.66;5029096;28;20210;-75
2022/09/20 11:01:23;;;;;;;3.10;1.40;;;22.40;50.40;;;-142.21;48.35;112049.66;5031615;28;20233;-75